Locum, Mississippi
Current Conditions -  °F | °C
As of 6:15 PM on Sunday 25 Jan 2015 (Local Time) from KCRX Reporting Station
Overcast Overcast  
Wind Chill: 43°   Ceiling: 6500
Heat Index: 46°   Visibility: 10mi
Dew Point: 41°   Wind: 7mph
Humidity: 81%   Direction: 260°W
Pressure: 29.77"   Gusts: NA
Location:  34.6406°N, 88.8031°W
Report Text: KCRX 260015Z AUTO 26006KT 10SM BKN065 OVC070 08/05 A2977 RMK AO2
Loading
Personal Weather Stations






























Interactive Weather Map New forecast layout! Learn more

10-Day Weather Forecast

Advertisements
Track Severe Weather on mobile